createdAt,value
2018-02-20T00:01:43.742Z,35.47
2018-02-20T00:04:12.007Z,32.17
2018-02-20T00:06:40.260Z,31.70
2018-02-20T00:09:09.281Z,34.53
2018-02-20T00:11:37.573Z,33.83
2018-02-20T00:14:05.938Z,33.07
2018-02-20T00:16:34.207Z,32.47
2018-02-20T00:19:02.542Z,31.17
2018-02-20T00:21:30.808Z,33.63
2018-02-20T00:23:59.055Z,34.40
2018-02-20T00:26:27.415Z,33.83
2018-02-20T00:28:55.664Z,32.37
2018-02-20T00:31:23.972Z,31.70
2018-02-20T00:33:52.442Z,34.40
2018-02-20T00:36:20.926Z,34.13
2018-02-20T00:38:49.176Z,33.20
2018-02-20T00:41:18.198Z,33.43
2018-02-20T00:43:46.440Z,31.67
2018-02-20T00:46:14.710Z,30.80
2018-02-20T00:48:43.215Z,32.83
2018-02-20T00:51:11.475Z,30.60
2018-02-20T00:53:40.483Z,29.93
2018-02-20T00:56:08.731Z,31.90
2018-02-20T00:58:37.841Z,30.27
2018-02-20T01:01:06.087Z,31.67
2018-02-20T01:03:34.458Z,30.23
2018-02-20T01:06:03.523Z,30.77
2018-02-20T01:08:31.807Z,31.70
2018-02-20T01:11:00.097Z,31.53
2018-02-20T01:13:28.380Z,31.20
2018-02-20T01:15:56.607Z,31.13
2018-02-20T01:18:24.916Z,31.47
2018-02-20T01:20:53.174Z,31.63
2018-02-20T01:23:21.448Z,31.33
2018-02-20T01:25:49.713Z,33.23
2018-02-20T01:28:17.979Z,33.27
2018-02-20T01:30:46.230Z,30.97
2018-02-20T01:33:14.520Z,31.43
2018-02-20T01:35:42.754Z,31.87
2018-02-20T01:38:11.819Z,32.37
2018-02-20T01:40:40.094Z,30.80
2018-02-20T01:43:08.363Z,31.80
2018-02-20T01:45:36.636Z,32.50
2018-02-20T01:48:04.886Z,30.63
2018-02-20T01:50:33.151Z,31.37
2018-02-20T01:53:01.422Z,32.50
2018-02-20T01:55:29.675Z,33.70
2018-02-20T01:57:58.831Z,33.30
2018-02-20T02:00:27.108Z,33.63
2018-02-20T02:02:55.386Z,34.07
2018-02-20T02:05:23.735Z,33.77
2018-02-20T02:07:51.995Z,35.53
2018-02-20T02:10:20.259Z,33.50
2018-02-20T02:12:48.547Z,35.07
2018-02-20T02:15:16.846Z,34.83
2018-02-20T02:17:45.100Z,32.27
2018-02-20T02:20:13.440Z,33.30
2018-02-20T02:22:41.709Z,33.53
2018-02-20T02:25:10.188Z,33.13
2018-02-20T02:27:38.460Z,36.40
2018-02-20T02:30:07.509Z,34.83
2018-02-20T02:32:35.837Z,36.53
2018-02-20T02:35:04.080Z,36.20
2018-02-20T02:37:32.386Z,34.93
2018-02-20T02:40:00.660Z,36.50
2018-02-20T02:42:29.710Z,35.73
2018-02-20T02:44:58.031Z,37.03
2018-02-20T02:47:27.060Z,37.40
2018-02-20T02:49:55.333Z,36.40
2018-02-20T02:52:23.624Z,36.87
2018-02-20T02:54:51.935Z,38.40
2018-02-20T02:57:20.201Z,39.03
2018-02-20T02:59:48.456Z,35.80
2018-02-20T03:02:16.739Z,37.93
2018-02-20T03:04:45.016Z,37.43
2018-02-20T03:07:13.877Z,36.70
2018-02-20T03:09:42.255Z,38.90
2018-02-20T03:12:10.530Z,39.17
2018-02-20T03:14:38.814Z,39.37
2018-02-20T03:17:07.173Z,38.10
2018-02-20T03:19:35.461Z,37.57
2018-02-20T03:22:03.729Z,37.17
2018-02-20T03:24:32.043Z,39.03
2018-02-20T03:27:01.057Z,38.13
2018-02-20T03:29:30.096Z,39.10
2018-02-20T03:31:58.362Z,37.40
2018-02-20T03:34:26.637Z,37.33
2018-02-20T03:36:54.909Z,39.13
2018-02-20T03:39:23.204Z,36.87
2018-02-20T03:41:51.463Z,34.50
2018-02-20T03:44:19.744Z,36.70
2018-02-20T03:46:48.112Z,36.87
2018-02-20T03:49:17.273Z,38.93
2018-02-20T03:51:45.511Z,38.03
2018-02-20T03:54:13.821Z,39.23
2018-02-20T03:56:42.067Z,39.40
2018-02-20T03:59:10.332Z,41.23
2018-02-20T04:01:38.601Z,40.97
2018-02-20T04:04:06.931Z,40.63
2018-02-20T04:06:36.019Z,41.47
2018-02-20T04:09:05.046Z,37.97
2018-02-20T04:11:33.319Z,41.77
2018-02-20T04:14:01.567Z,41.83
2018-02-20T04:16:30.626Z,41.40
2018-02-20T04:18:58.888Z,36.57
2018-02-20T04:21:27.163Z,40.33
2018-02-20T04:23:55.435Z,38.17
2018-02-20T04:26:23.749Z,39.67
2018-02-20T04:28:51.971Z,38.30
2018-02-20T04:31:20.299Z,39.17
2018-02-20T04:33:48.882Z,38.73
2018-02-20T04:36:17.125Z,41.47
2018-02-20T04:38:45.396Z,40.77
2018-02-20T04:41:13.674Z,40.00
2018-02-20T04:43:41.919Z,40.33
2018-02-20T04:46:10.193Z,36.60
2018-02-20T04:48:38.449Z,37.50
2018-02-20T04:51:06.740Z,35.73
2018-02-20T04:53:35.000Z,34.93
2018-02-20T04:56:03.282Z,35.37
2018-02-20T04:58:31.564Z,37.30
2018-02-20T05:00:59.830Z,37.70
2018-02-20T05:03:28.111Z,38.83
2018-02-20T05:05:56.435Z,37.37
2018-02-20T05:08:24.670Z,48.45
2018-02-20T05:10:52.947Z,41.53
2018-02-20T05:13:21.295Z,43.73
2018-02-20T05:15:49.622Z,38.23
2018-02-20T05:18:17.903Z,39.33
2018-02-20T05:20:46.178Z,41.53
2018-02-20T05:23:14.451Z,43.73
2018-02-20T05:25:42.715Z,44.37
2018-02-20T05:28:11.018Z,45.40
2018-02-20T05:30:39.270Z,47.77
2018-02-20T05:33:07.581Z,47.57
2018-02-20T05:35:35.871Z,45.47
2018-02-20T05:38:04.151Z,46.37
2018-02-20T05:40:32.416Z,51.60
2018-02-20T05:43:01.456Z,48.33
2018-02-20T05:45:29.733Z,47.83
2018-02-20T05:47:58.390Z,46.33
2018-02-20T05:50:26.833Z,46.23
2018-02-20T05:52:55.081Z,44.77
2018-02-20T05:55:23.491Z,50.73
2018-02-20T05:57:51.890Z,47.10
2018-02-20T06:00:20.119Z,50.03
2018-02-20T06:02:48.502Z,50.33
2018-02-20T06:05:16.947Z,51.60
2018-02-20T06:07:45.195Z,49.33
2018-02-20T06:10:13.467Z,53.17
2018-02-20T06:12:41.938Z,46.93
2018-02-20T06:15:10.992Z,52.23
2018-02-20T06:17:40.177Z,51.23
2018-02-20T06:20:08.622Z,54.27
2018-02-20T06:22:36.972Z,55.80
2018-02-20T06:25:05.219Z,52.37
2018-02-20T06:27:33.504Z,54.50
2018-02-20T06:30:01.829Z,54.77
2018-02-20T06:32:30.080Z,53.50
2018-02-20T06:34:58.513Z,54.37
2018-02-20T06:37:26.812Z,54.40
2018-02-20T06:39:55.091Z,56.17
2018-02-20T06:42:24.202Z,53.00
2018-02-20T06:44:53.324Z,54.23
2018-02-20T06:47:21.599Z,54.43
2018-02-20T06:49:49.887Z,55.60
2018-02-20T06:52:18.163Z,55.73
2018-02-20T06:54:46.431Z,53.80
2018-02-20T06:57:14.707Z,56.00
2018-02-20T06:59:42.986Z,53.70
2018-02-20T07:02:11.280Z,54.50
2018-02-20T07:04:39.546Z,56.23
2018-02-20T07:07:07.839Z,55.43
2018-02-20T07:09:36.123Z,56.63
2018-02-20T07:12:04.492Z,54.83
2018-02-20T07:14:32.726Z,55.90
2018-02-20T07:17:01.022Z,53.23
2018-02-20T07:19:29.242Z,55.83
2018-02-20T07:21:58.331Z,57.03
2018-02-20T07:24:27.393Z,56.27
2018-02-20T07:26:55.707Z,56.37
2018-02-20T07:29:24.111Z,57.47
2018-02-20T07:31:52.416Z,58.17
2018-02-20T07:34:20.711Z,57.33
2018-02-20T07:36:48.992Z,60.37
2018-02-20T07:39:17.387Z,61.20
2018-02-20T07:41:46.511Z,58.67
2018-02-20T07:44:14.859Z,59.80
2018-02-20T07:46:43.899Z,56.60
2018-02-20T07:49:12.848Z,59.63
2018-02-20T07:51:41.895Z,58.67
2018-02-20T07:54:10.168Z,59.63
2018-02-20T07:56:38.433Z,59.47
2018-02-20T07:59:06.685Z,57.57
2018-02-20T08:01:34.969Z,58.27
2018-02-20T08:04:03.255Z,59.23
2018-02-20T08:06:31.631Z,56.03
2018-02-20T08:08:59.892Z,58.77
2018-02-20T08:11:28.164Z,55.90
2018-02-20T08:13:56.511Z,57.53
2018-02-20T08:16:24.776Z,59.40
2018-02-20T08:18:53.856Z,58.13
2018-02-20T08:21:22.179Z,56.00
2018-02-20T08:23:50.451Z,53.33
2018-02-20T08:26:18.743Z,56.37
2018-02-20T08:28:47.016Z,55.70
2018-02-20T08:31:15.295Z,55.30
2018-02-20T08:33:43.731Z,54.60
2018-02-20T08:36:12.941Z,55.77
2018-02-20T08:38:41.237Z,56.90
2018-02-20T08:41:09.524Z,56.67
2018-02-20T08:43:37.799Z,54.57
2018-02-20T08:46:06.074Z,55.13
2018-02-20T08:48:34.356Z,55.50
2018-02-20T08:51:02.626Z,48.73
2018-02-20T08:53:30.870Z,50.87
2018-02-20T08:55:59.897Z,45.20
2018-02-20T08:58:28.175Z,47.00
2018-02-20T09:00:56.438Z,47.00
2018-02-20T09:03:24.679Z,46.87
2018-02-20T09:05:53.731Z,47.80
2018-02-20T09:08:22.242Z,45.20
2018-02-20T09:10:50.594Z,46.87
2018-02-20T09:13:18.847Z,45.50
2018-02-20T09:15:47.337Z,46.33
2018-02-20T09:18:15.610Z,46.67
2018-02-20T09:20:43.888Z,46.77
2018-02-20T09:23:12.269Z,45.33
2018-02-20T09:25:40.542Z,46.57
2018-02-20T09:28:08.795Z,44.10
2018-02-20T09:30:37.069Z,44.27
2018-02-20T09:33:05.487Z,45.60
2018-02-20T09:35:33.779Z,44.87
2018-02-20T09:38:02.110Z,46.27
2018-02-20T09:40:30.380Z,45.10
2018-02-20T09:42:58.648Z,45.83
2018-02-20T09:45:26.950Z,43.80
2018-02-20T09:47:55.338Z,45.50
2018-02-20T09:50:23.653Z,42.90
2018-02-20T09:52:51.974Z,45.00
2018-02-20T09:55:20.286Z,45.10
2018-02-20T09:57:49.336Z,44.47
2018-02-20T10:00:17.609Z,44.60
2018-02-20T10:02:45.866Z,43.20
2018-02-20T10:05:14.133Z,44.50
2018-02-20T10:07:42.691Z,43.87
2018-02-20T10:10:11.726Z,45.40
2018-02-20T10:12:40.025Z,43.13
2018-02-20T10:15:08.384Z,42.33
2018-02-20T10:17:36.655Z,42.00
2018-02-20T10:20:04.923Z,41.30
2018-02-20T10:22:33.225Z,41.53
2018-02-20T10:25:01.470Z,42.03
2018-02-20T10:27:29.718Z,41.83
2018-02-20T10:29:58.068Z,42.27
2018-02-20T10:32:26.328Z,40.90
2018-02-20T10:34:54.646Z,42.00
2018-02-20T10:37:22.907Z,41.17
2018-02-20T10:39:51.946Z,42.90
2018-02-20T10:42:20.356Z,40.37
2018-02-20T10:44:49.423Z,42.60
2018-02-20T10:47:17.694Z,39.77
2018-02-20T10:49:45.959Z,42.07
2018-02-20T10:52:14.217Z,41.40
2018-02-20T10:54:43.334Z,40.63
2018-02-20T10:57:11.648Z,40.13
2018-02-20T10:59:40.032Z,37.00
2018-02-20T11:02:08.291Z,38.40
2018-02-20T11:04:36.659Z,38.97
2018-02-20T11:07:04.894Z,41.37
2018-02-20T11:09:33.191Z,37.13
2018-02-20T11:12:01.543Z,35.77
2018-02-20T11:14:29.826Z,37.20
2018-02-20T11:16:58.844Z,39.77
2018-02-20T11:19:27.095Z,37.13
2018-02-20T11:21:56.118Z,33.23
2018-02-20T11:24:24.472Z,36.07
2018-02-20T11:26:52.871Z,38.03
2018-02-20T11:29:21.127Z,38.03
2018-02-20T11:31:49.518Z,36.13
2018-02-20T11:34:17.759Z,36.30
2018-02-20T11:36:46.058Z,35.53
2018-02-20T11:39:14.299Z,33.70
2018-02-20T11:41:42.579Z,35.67
2018-02-20T11:44:10.847Z,35.17
2018-02-20T11:46:39.911Z,35.47
2018-02-20T11:49:08.238Z,35.63
2018-02-20T11:51:36.420Z,33.80
2018-02-20T11:54:04.670Z,32.40
2018-02-20T11:56:32.956Z,33.53
2018-02-20T11:59:01.229Z,32.43
2018-02-20T12:01:29.486Z,34.33
2018-02-20T12:03:58.651Z,32.33
2018-02-20T12:06:26.910Z,33.20
2018-02-20T12:08:55.175Z,34.20
2018-02-20T12:11:23.443Z,34.43
2018-02-20T12:13:51.766Z,32.77
2018-02-20T12:16:20.036Z,35.23
2018-02-20T12:18:48.291Z,35.13
2018-02-20T12:21:16.675Z,36.40
2018-02-20T12:23:44.957Z,35.63
2018-02-20T12:26:13.216Z,35.80
2018-02-20T12:28:41.508Z,37.43
2018-02-20T12:31:09.777Z,37.30
2018-02-20T12:33:38.042Z,37.17
2018-02-20T12:36:06.298Z,35.87
2018-02-20T12:38:34.648Z,38.03
2018-02-20T12:41:02.889Z,37.27
2018-02-20T12:43:31.147Z,37.67
2018-02-20T12:45:59.747Z,34.13
2018-02-20T12:48:28.570Z,36.90
2018-02-20T12:50:57.257Z,38.77
2018-02-20T12:53:26.530Z,37.63
2018-02-20T12:55:54.821Z,39.20
2018-02-20T12:58:23.540Z,38.57
2018-02-20T13:00:52.096Z,37.77
2018-02-20T13:03:20.440Z,37.77
2018-02-20T13:05:48.751Z,36.93
2018-02-20T13:08:17.200Z,39.13
2018-02-20T13:10:45.474Z,38.23
2018-02-20T13:13:13.920Z,36.10
2018-02-20T13:15:42.366Z,33.17
2018-02-20T13:18:10.787Z,31.27
2018-02-20T13:20:39.895Z,31.00
2018-02-20T13:23:08.156Z,29.97
2018-02-20T13:25:36.579Z,31.03
2018-02-20T13:28:04.925Z,29.17
2018-02-20T13:30:33.208Z,26.10
2018-02-20T13:33:02.259Z,27.50
2018-02-20T13:35:30.543Z,26.80
2018-02-20T13:37:58.791Z,28.23
2018-02-20T13:40:27.128Z,29.60
2018-02-20T13:42:56.171Z,27.27
2018-02-20T13:45:24.430Z,29.10
2018-02-20T13:47:52.920Z,29.17
2018-02-20T13:50:21.194Z,28.53
2018-02-20T13:52:49.862Z,29.73
2018-02-20T13:55:24.202Z,29.20
2018-02-20T13:57:52.477Z,27.37
2018-02-20T14:00:20.749Z,26.77
2018-02-20T14:02:49.067Z,25.27
2018-02-20T14:05:17.327Z,23.53
2018-02-20T14:07:45.608Z,24.93
2018-02-20T14:10:13.937Z,25.83
2018-02-20T14:12:42.334Z,24.70
2018-02-20T14:15:10.762Z,24.67
2018-02-20T14:17:39.034Z,25.17
2018-02-20T14:20:07.456Z,23.80
2018-02-20T14:22:35.878Z,22.47
2018-02-20T14:25:04.392Z,20.87
2018-02-20T14:27:32.901Z,20.90
2018-02-20T14:30:01.230Z,20.43
2018-02-20T14:32:30.752Z,22.50
2018-02-20T14:34:59.174Z,22.53
2018-02-20T14:37:27.450Z,21.97
2018-02-20T14:39:55.720Z,23.20
2018-02-20T14:42:23.963Z,21.90
2018-02-20T14:44:52.259Z,23.37
2018-02-20T14:47:20.507Z,24.33
2018-02-20T14:49:48.779Z,24.10
2018-02-20T14:52:17.007Z,23.83
2018-02-20T14:54:45.270Z,25.13
2018-02-20T14:57:13.594Z,24.60
2018-02-20T14:59:43.832Z,22.63
2018-02-20T15:02:12.107Z,24.13
2018-02-20T15:04:40.448Z,24.67
2018-02-20T15:07:08.716Z,25.03
2018-02-20T15:09:36.971Z,25.80
2018-02-20T15:12:05.270Z,26.07
2018-02-20T15:14:33.510Z,25.93
2018-02-20T15:17:01.790Z,23.73
2018-02-20T15:19:30.018Z,22.40
2018-02-20T15:21:59.055Z,20.13
2018-02-20T15:24:27.307Z,19.33
2018-02-20T15:26:55.583Z,20.43
2018-02-20T15:29:23.873Z,20.30
2018-02-20T15:31:52.146Z,20.50
2018-02-20T15:34:20.442Z,22.83
2018-02-20T15:36:48.963Z,23.23
2018-02-20T15:39:18.088Z,24.43
2018-02-20T15:41:46.353Z,25.63
2018-02-20T15:44:14.595Z,26.53
2018-02-20T15:46:43.615Z,27.03
2018-02-20T15:49:11.957Z,28.60
2018-02-20T15:51:40.500Z,29.30
2018-02-20T15:54:08.739Z,26.67
2018-02-20T15:56:37.152Z,28.60
2018-02-20T15:59:05.364Z,28.30
2018-02-20T16:01:34.412Z,25.87
2018-02-20T16:04:02.834Z,23.47
2018-02-20T16:06:31.083Z,26.37
2018-02-20T16:08:59.469Z,27.47
2018-02-20T16:11:27.792Z,27.47
2018-02-20T16:13:56.084Z,26.23
2018-02-20T16:16:24.329Z,27.43
2018-02-20T16:18:52.660Z,26.03
2018-02-20T16:21:20.876Z,26.90
2018-02-20T16:23:49.977Z,25.20
2018-02-20T16:26:18.992Z,26.67
2018-02-20T16:28:47.537Z,27.37
2018-02-20T16:31:15.819Z,26.83
2018-02-20T16:33:44.771Z,27.73
2018-02-20T16:36:13.054Z,26.97
2018-02-20T16:38:41.357Z,27.97
2018-02-20T16:41:10.439Z,27.27
2018-02-20T16:43:39.604Z,27.70
2018-02-20T16:46:07.892Z,25.77
2018-02-20T16:48:36.155Z,25.43
2018-02-20T16:51:04.683Z,25.30
2018-02-20T16:53:33.708Z,26.67
2018-02-20T16:56:01.981Z,25.97
2018-02-20T16:58:30.251Z,25.40
2018-02-20T17:00:58.588Z,25.50
2018-02-20T17:03:27.623Z,27.07
2018-02-20T17:05:55.859Z,26.53
2018-02-20T17:08:24.903Z,25.47
2018-02-20T17:10:53.204Z,26.23
2018-02-20T17:13:21.452Z,27.13
2018-02-20T17:15:49.739Z,27.13
2018-02-20T17:18:18.008Z,26.87
2018-02-20T17:20:46.323Z,28.30
2018-02-20T17:23:14.635Z,26.97
2018-02-20T17:25:42.886Z,26.30
2018-02-20T17:28:11.935Z,27.77
2018-02-20T17:30:40.202Z,27.37
2018-02-20T17:33:08.662Z,28.17
2018-02-20T17:35:36.912Z,28.17
2018-02-20T17:38:05.946Z,28.23
2018-02-20T17:40:34.748Z,28.57
2018-02-20T17:43:03.123Z,28.20
2018-02-20T17:45:31.380Z,28.73
2018-02-20T17:47:59.687Z,28.90
2018-02-20T17:50:28.022Z,29.20
2018-02-20T17:52:56.394Z,29.23
2018-02-20T17:55:24.666Z,27.67
2018-02-20T17:57:52.899Z,29.03
2018-02-20T18:00:21.160Z,27.27
2018-02-20T18:02:49.461Z,29.33
2018-02-20T18:05:17.723Z,30.23
2018-02-20T18:07:46.872Z,30.60
2018-02-20T18:10:15.228Z,30.37
2018-02-20T18:12:43.604Z,30.50
2018-02-20T18:15:11.886Z,30.37
2018-02-20T18:17:40.182Z,29.90
2018-02-20T18:20:08.508Z,31.67
2018-02-20T18:22:36.761Z,31.40
2018-02-20T18:25:05.009Z,30.43
2018-02-20T18:27:33.362Z,31.77
2018-02-20T18:30:02.416Z,31.30
2018-02-20T18:32:30.680Z,31.17
2018-02-20T18:34:58.965Z,31.17
2018-02-20T18:37:27.238Z,30.80
2018-02-20T18:39:55.610Z,31.43
2018-02-20T18:42:23.983Z,31.77
2018-02-20T18:44:52.323Z,30.63
2018-02-20T18:47:20.711Z,32.27
2018-02-20T18:49:48.971Z,31.47
2018-02-20T18:52:17.239Z,32.13
2018-02-20T18:54:45.513Z,30.50
2018-02-20T18:57:13.771Z,33.13
2018-02-20T18:59:42.039Z,31.43
2018-02-20T19:02:11.069Z,32.70
2018-02-20T19:04:39.368Z,32.40
2018-02-20T19:07:07.692Z,32.57
2018-02-20T19:09:35.951Z,32.57
2018-02-20T19:12:05.024Z,31.77
2018-02-20T19:14:33.327Z,32.43
2018-02-20T19:17:02.383Z,35.33
2018-02-20T19:19:30.680Z,33.10
2018-02-20T19:21:59.717Z,33.47
2018-02-20T19:24:28.015Z,32.93
2018-02-20T19:26:56.260Z,32.87
2018-02-20T19:29:24.516Z,31.80
2018-02-20T19:31:53.692Z,35.20
2018-02-20T19:34:23.475Z,35.40
2018-02-20T19:36:51.753Z,32.73
2018-02-20T19:39:19.997Z,35.87
2018-02-20T19:41:48.274Z,33.87
2018-02-20T19:44:16.584Z,36.63
2018-02-20T19:46:44.943Z,35.53
2018-02-20T19:49:13.263Z,36.17
2018-02-20T19:51:41.522Z,36.20
2018-02-20T19:54:09.802Z,37.40
2018-02-20T19:56:38.060Z,37.40
2018-02-20T19:59:06.365Z,37.17
2018-02-20T20:01:34.720Z,37.57
2018-02-20T20:04:03.012Z,35.13
2018-02-20T20:06:31.262Z,39.07
2018-02-20T20:08:59.579Z,38.23
2018-02-20T20:11:27.907Z,40.93
2018-02-20T20:13:56.172Z,38.60
2018-02-20T20:16:24.428Z,39.00
2018-02-20T20:18:52.713Z,37.17
2018-02-20T20:21:20.988Z,39.90
2018-02-20T20:23:49.263Z,38.03
2018-02-20T20:26:17.538Z,39.00
2018-02-20T20:28:45.863Z,40.13
2018-02-20T20:31:14.342Z,40.30
2018-02-20T20:33:43.391Z,38.93
2018-02-20T20:36:11.710Z,39.80
2018-02-20T20:38:39.973Z,42.00
2018-02-20T20:41:08.257Z,41.07
2018-02-20T20:43:36.528Z,41.87
2018-02-20T20:46:04.820Z,43.47
2018-02-20T20:48:33.911Z,40.90
2018-02-20T20:51:02.934Z,43.10
2018-02-20T20:53:31.276Z,42.20
2018-02-20T20:56:00.318Z,41.13
2018-02-20T20:58:28.628Z,41.93
2018-02-20T21:00:56.895Z,43.90
2018-02-20T21:03:25.172Z,41.57
2018-02-20T21:05:53.473Z,43.97
2018-02-20T21:08:22.541Z,43.67
2018-02-20T21:10:50.835Z,43.33
2018-02-20T21:13:19.932Z,42.97
2018-02-20T21:15:48.203Z,44.33
2018-02-20T21:18:16.617Z,44.00
2018-02-20T21:20:45.069Z,44.20
2018-02-20T21:23:13.387Z,44.67
2018-02-20T21:25:41.648Z,43.23
2018-02-20T21:28:09.997Z,44.33
2018-02-20T21:30:38.240Z,44.10
2018-02-20T21:33:06.523Z,43.47
2018-02-20T21:35:35.326Z,44.63
2018-02-20T21:38:03.638Z,43.13
2018-02-20T21:40:31.908Z,43.97
2018-02-20T21:43:00.202Z,45.83
2018-02-20T21:45:28.523Z,45.80
2018-02-20T21:47:56.841Z,44.67
2018-02-20T21:50:25.128Z,44.23
2018-02-20T21:52:54.401Z,44.67
2018-02-20T21:55:22.675Z,44.83
2018-02-20T21:57:51.743Z,44.93
2018-02-20T22:00:19.984Z,43.20
2018-02-20T22:02:48.267Z,45.47
2018-02-20T22:05:16.503Z,44.13
2018-02-20T22:07:45.011Z,44.83
2018-02-20T22:10:13.297Z,46.50
2018-02-20T22:12:41.570Z,46.10
2018-02-20T22:15:09.817Z,47.30
2018-02-20T22:17:38.087Z,47.27
2018-02-20T22:20:06.336Z,45.63
2018-02-20T22:22:34.647Z,45.20
2018-02-20T22:25:03.027Z,48.17
2018-02-20T22:27:31.295Z,47.37
2018-02-20T22:29:59.625Z,47.40
2018-02-20T22:32:27.877Z,46.70
2018-02-20T22:34:56.103Z,47.63
2018-02-20T22:37:24.359Z,48.90
2018-02-20T22:39:52.667Z,49.07
2018-02-20T22:42:20.900Z,49.77
2018-02-20T22:44:49.924Z,47.53
2018-02-20T22:47:18.262Z,48.57
2018-02-20T22:49:46.535Z,49.63
2018-02-20T22:52:14.912Z,49.53
2018-02-20T22:54:43.187Z,50.53
2018-02-20T22:57:12.248Z,49.57
2018-02-20T22:59:40.515Z,49.30
2018-02-20T23:02:08.778Z,50.00
2018-02-20T23:04:37.061Z,50.20
2018-02-20T23:07:05.318Z,47.17
2018-02-20T23:09:33.667Z,53.27
2018-02-20T23:12:01.932Z,51.73
2018-02-20T23:14:30.931Z,52.57
2018-02-20T23:17:00.064Z,55.63
2018-02-20T23:19:28.354Z,52.33
2018-02-20T23:21:56.599Z,52.27
2018-02-20T23:24:24.855Z,52.90
2018-02-20T23:26:53.919Z,52.63
2018-02-20T23:29:22.971Z,50.30
2018-02-20T23:31:51.247Z,54.03
2018-02-20T23:34:19.515Z,53.10
2018-02-20T23:36:48.010Z,52.57
2018-02-20T23:39:16.269Z,51.40
2018-02-20T23:41:44.554Z,50.90
2018-02-20T23:44:12.799Z,52.20
2018-02-20T23:46:41.116Z,51.83
2018-02-20T23:49:09.367Z,55.97
2018-02-20T23:51:37.643Z,53.37
2018-02-20T23:54:05.934Z,53.77
2018-02-20T23:56:34.223Z,54.23
2018-02-20T23:59:02.491Z,52.73
